createdAt,value
2018-12-31T00:00:34.304Z,24.97
2018-12-31T00:03:02.418Z,24.47
2018-12-31T00:05:30.432Z,24.30
2018-12-31T00:07:59.430Z,24.57
2018-12-31T00:10:27.443Z,23.60
2018-12-31T00:12:55.888Z,22.83
2018-12-31T00:15:23.538Z,22.97
2018-12-31T00:17:51.287Z,22.53
2018-12-31T00:20:19.303Z,24.90
2018-12-31T00:22:47.227Z,23.33
2018-12-31T00:25:15.274Z,25.00
2018-12-31T00:27:42.944Z,25.40
2018-12-31T00:30:10.691Z,27.80
2018-12-31T00:32:38.413Z,25.47
2018-12-31T00:35:06.141Z,27.57
2018-12-31T00:37:33.851Z,28.27
2018-12-31T00:40:02.562Z,29.10
2018-12-31T00:42:30.531Z,32.20
2018-12-31T00:44:58.240Z,30.47
2018-12-31T00:47:25.940Z,32.23
2018-12-31T00:49:53.877Z,29.83
2018-12-31T00:52:21.855Z,32.90
2018-12-31T00:54:49.863Z,32.67
2018-12-31T00:57:17.910Z,31.60
2018-12-31T00:59:45.595Z,32.50
2018-12-31T01:02:13.550Z,33.53
2018-12-31T01:04:41.584Z,33.47
2018-12-31T01:07:09.662Z,33.33
2018-12-31T01:09:37.348Z,32.70
2018-12-31T01:12:04.997Z,32.60
2018-12-31T01:14:32.730Z,32.83
2018-12-31T01:17:00.395Z,34.13
2018-12-31T01:19:28.104Z,31.47
2018-12-31T01:21:55.764Z,33.30
2018-12-31T01:24:23.893Z,34.67
2018-12-31T01:26:51.465Z,31.57
2018-12-31T01:29:19.208Z,33.50
2018-12-31T01:31:47.222Z,34.30
2018-12-31T01:34:15.167Z,32.40
2018-12-31T01:36:42.823Z,32.33
2018-12-31T01:39:10.761Z,33.03
2018-12-31T01:41:38.518Z,33.27
2018-12-31T01:44:06.178Z,33.90
2018-12-31T01:46:33.952Z,31.53
2018-12-31T01:49:01.646Z,33.63
2018-12-31T01:51:29.383Z,35.40
2018-12-31T01:53:57.083Z,32.80
2018-12-31T01:56:25.793Z,33.03
2018-12-31T01:58:53.906Z,35.00
2018-12-31T02:01:22.884Z,35.13
2018-12-31T02:03:50.551Z,34.20
2018-12-31T02:06:18.528Z,34.37
2018-12-31T02:08:46.252Z,35.50
2018-12-31T02:11:13.912Z,35.53
2018-12-31T02:13:42.010Z,36.30
2018-12-31T02:16:09.675Z,34.77
2018-12-31T02:18:37.517Z,34.27
2018-12-31T02:21:05.200Z,35.67
2018-12-31T02:23:32.931Z,35.10
2018-12-31T02:26:00.604Z,34.97
2018-12-31T02:28:28.399Z,33.93
2018-12-31T02:30:57.111Z,35.67
2018-12-31T02:33:24.788Z,35.03
2018-12-31T02:35:52.625Z,35.03
2018-12-31T02:38:21.808Z,34.20
2018-12-31T02:40:49.480Z,33.43
2018-12-31T02:43:17.199Z,34.33
2018-12-31T02:45:44.892Z,35.50
2018-12-31T02:48:12.587Z,32.40
2018-12-31T02:50:40.326Z,35.03
2018-12-31T02:53:08.075Z,35.80
2018-12-31T02:55:36.433Z,34.37
2018-12-31T02:58:04.650Z,31.93
2018-12-31T03:00:32.649Z,32.70
2018-12-31T03:03:00.357Z,34.50
2018-12-31T03:05:28.436Z,35.07
2018-12-31T03:07:56.167Z,34.30
2018-12-31T03:10:24.173Z,34.23
2018-12-31T03:12:51.840Z,35.37
2018-12-31T03:15:19.917Z,32.17
2018-12-31T03:17:47.508Z,33.67
2018-12-31T03:20:15.240Z,33.87
2018-12-31T03:22:42.990Z,33.03
2018-12-31T03:25:10.786Z,34.67
2018-12-31T03:27:38.736Z,36.00
2018-12-31T03:30:06.472Z,35.23
2018-12-31T03:32:34.681Z,34.17
2018-12-31T03:35:02.363Z,35.00
2018-12-31T03:37:30.075Z,34.47
2018-12-31T03:39:58.364Z,35.80
2018-12-31T03:42:26.438Z,32.70
2018-12-31T03:44:54.105Z,33.63
2018-12-31T03:47:22.197Z,34.93
2018-12-31T03:49:49.837Z,33.93
2018-12-31T03:52:17.515Z,32.37
2018-12-31T03:54:45.222Z,34.70
2018-12-31T03:57:13.212Z,33.97
2018-12-31T03:59:40.871Z,33.07
2018-12-31T04:02:08.935Z,34.33
2018-12-31T04:04:36.639Z,34.83
2018-12-31T04:07:04.724Z,33.70
2018-12-31T04:09:32.418Z,32.93
2018-12-31T04:12:00.128Z,36.17
2018-12-31T04:14:28.182Z,34.50
2018-12-31T04:16:55.882Z,33.50
2018-12-31T04:19:23.796Z,34.73
2018-12-31T04:21:51.519Z,32.97
2018-12-31T04:24:19.324Z,33.70
2018-12-31T04:26:47.003Z,35.47
2018-12-31T04:29:14.716Z,34.73
2018-12-31T04:31:42.438Z,31.97
2018-12-31T04:34:10.489Z,32.90
2018-12-31T04:36:38.171Z,31.93
2018-12-31T04:39:06.238Z,34.17
2018-12-31T04:41:34.405Z,32.30
2018-12-31T04:44:02.124Z,31.93
2018-12-31T04:46:30.173Z,33.07
2018-12-31T04:48:57.874Z,32.40
2018-12-31T04:51:25.563Z,33.23
2018-12-31T04:53:53.406Z,33.70
2018-12-31T04:56:21.350Z,31.87
2018-12-31T04:58:49.159Z,31.67
2018-12-31T05:01:16.835Z,31.37
2018-12-31T05:03:44.440Z,29.87
2018-12-31T05:06:12.125Z,31.40
2018-12-31T05:08:40.330Z,32.13
2018-12-31T05:11:08.009Z,30.67
2018-12-31T05:13:35.737Z,45.60
2018-12-31T05:16:03.813Z,31.73
2018-12-31T05:18:31.540Z,33.57
2018-12-31T05:20:59.204Z,32.70
2018-12-31T05:23:26.993Z,32.77
2018-12-31T05:25:54.670Z,32.03
2018-12-31T05:28:22.459Z,32.03
2018-12-31T05:30:50.108Z,31.60
2018-12-31T05:33:17.820Z,32.70
2018-12-31T05:35:45.535Z,32.57
2018-12-31T05:38:13.192Z,32.83
2018-12-31T05:40:40.858Z,34.13
2018-12-31T05:43:10.164Z,33.90
2018-12-31T05:45:38.210Z,31.80
2018-12-31T05:48:06.264Z,32.77
2018-12-31T05:50:35.052Z,33.20
2018-12-31T05:53:02.742Z,33.57
2018-12-31T05:55:30.752Z,34.73
2018-12-31T05:57:58.519Z,34.30
2018-12-31T06:00:26.508Z,35.47
2018-12-31T06:02:54.207Z,34.10
2018-12-31T06:05:22.010Z,33.43
2018-12-31T06:07:49.663Z,33.63
2018-12-31T06:10:17.729Z,35.67
2018-12-31T06:12:45.407Z,34.40
2018-12-31T06:15:13.085Z,35.20
2018-12-31T06:17:41.469Z,35.53
2018-12-31T06:20:09.145Z,36.27
2018-12-31T06:22:37.145Z,37.03
2018-12-31T06:25:04.900Z,40.90
2018-12-31T06:27:32.584Z,37.50
2018-12-31T06:30:02.043Z,36.50
2018-12-31T06:32:29.984Z,36.27
2018-12-31T06:34:57.674Z,37.53
2018-12-31T06:37:25.694Z,36.43
2018-12-31T06:39:53.484Z,38.47
2018-12-31T06:42:21.536Z,40.43
2018-12-31T06:44:49.247Z,42.50
2018-12-31T06:47:16.932Z,40.27
2018-12-31T06:49:44.643Z,40.07
2018-12-31T06:52:12.616Z,41.97
2018-12-31T06:54:40.282Z,42.37
2018-12-31T06:57:08.332Z,43.63
2018-12-31T06:59:36.018Z,52.00
2018-12-31T07:02:03.731Z,46.57
2018-12-31T07:04:31.796Z,42.80
2018-12-31T07:06:59.912Z,46.33
2018-12-31T07:09:27.620Z,44.63
2018-12-31T07:11:55.954Z,44.27
2018-12-31T07:14:24.862Z,43.17
2018-12-31T07:16:52.527Z,43.23
2018-12-31T07:19:20.445Z,61.13
2018-12-31T07:21:48.536Z,44.30
2018-12-31T07:24:16.258Z,43.80
2018-12-31T07:26:44.419Z,44.50
2018-12-31T07:29:12.236Z,45.73
2018-12-31T07:31:39.922Z,45.23
2018-12-31T07:34:07.717Z,43.73
2018-12-31T07:36:35.403Z,43.57
2018-12-31T07:39:04.989Z,43.13
2018-12-31T07:41:32.682Z,42.90
2018-12-31T07:44:00.769Z,43.93
2018-12-31T07:46:28.745Z,43.77
2018-12-31T07:48:56.745Z,43.93
2018-12-31T07:51:24.394Z,44.50
2018-12-31T07:53:52.157Z,43.73
2018-12-31T07:56:19.870Z,44.73
2018-12-31T07:58:47.583Z,46.63
2018-12-31T08:01:15.317Z,44.37
2018-12-31T08:03:42.973Z,42.70
2018-12-31T08:06:10.732Z,42.90
2018-12-31T08:08:38.398Z,42.97
2018-12-31T08:11:06.588Z,43.67
2018-12-31T08:13:34.267Z,44.33
2018-12-31T08:16:02.149Z,43.43
2018-12-31T08:18:30.187Z,42.30
2018-12-31T08:20:57.992Z,43.53
2018-12-31T08:23:25.660Z,41.43
2018-12-31T08:25:53.508Z,42.90
2018-12-31T08:28:21.276Z,42.37
2018-12-31T08:30:48.946Z,42.57
2018-12-31T08:33:16.758Z,42.03
2018-12-31T08:35:44.425Z,42.57
2018-12-31T08:38:12.140Z,44.70
2018-12-31T08:40:39.794Z,43.30
2018-12-31T08:43:07.580Z,40.73
2018-12-31T08:45:35.867Z,41.80
2018-12-31T08:48:03.673Z,40.20
2018-12-31T08:50:31.362Z,41.17
2018-12-31T08:52:59.088Z,52.60
2018-12-31T08:55:27.183Z,41.60
2018-12-31T08:57:54.913Z,43.43
2018-12-31T09:00:22.735Z,40.40
2018-12-31T09:02:50.697Z,40.63
2018-12-31T09:05:18.470Z,40.80
2018-12-31T09:07:46.758Z,40.37
2018-12-31T09:10:14.891Z,36.97
2018-12-31T09:12:42.667Z,37.83
2018-12-31T09:15:11.930Z,35.60
2018-12-31T09:17:40.038Z,34.43
2018-12-31T09:20:08.164Z,36.80
2018-12-31T09:22:35.851Z,36.77
2018-12-31T09:25:03.739Z,33.70
2018-12-31T09:27:31.699Z,33.97
2018-12-31T09:29:59.487Z,31.50
2018-12-31T09:32:27.494Z,33.07
2018-12-31T09:34:55.209Z,32.13
2018-12-31T09:37:22.925Z,28.87
2018-12-31T09:39:50.625Z,30.53
2018-12-31T09:42:18.312Z,30.13
2018-12-31T09:44:46.094Z,30.13
2018-12-31T09:47:13.765Z,28.03
2018-12-31T09:49:41.525Z,27.60
2018-12-31T09:52:09.397Z,27.33
2018-12-31T09:54:37.525Z,26.00
2018-12-31T09:57:05.266Z,25.27
2018-12-31T10:02:46.514Z,25.50
2018-12-31T10:05:14.308Z,24.53
2018-12-31T10:10:42.457Z,24.13
2018-12-31T10:13:10.140Z,24.33
2018-12-31T10:15:38.201Z,23.93
2018-12-31T10:18:08.635Z,22.67
2018-12-31T10:20:37.498Z,21.17
2018-12-31T10:23:05.426Z,22.43
2018-12-31T10:25:33.109Z,24.53
2018-12-31T10:28:00.715Z,25.40
2018-12-31T10:30:28.451Z,23.00
2018-12-31T10:32:59.110Z,23.97
2018-12-31T10:35:26.792Z,21.40
2018-12-31T10:37:54.726Z,22.77
2018-12-31T10:40:22.383Z,22.10
2018-12-31T10:42:51.125Z,21.50
2018-12-31T10:45:18.751Z,23.53
2018-12-31T10:47:47.299Z,21.53
2018-12-31T10:50:33.761Z,21.23
2018-12-31T10:53:02.645Z,20.87
2018-12-31T10:55:30.285Z,19.57
2018-12-31T10:57:57.957Z,53.07
2018-12-31T11:00:27.796Z,17.33
2018-12-31T11:02:55.503Z,17.53
2018-12-31T11:05:23.175Z,17.37
2018-12-31T11:07:51.216Z,17.50
2018-12-31T11:10:19.276Z,17.83
2018-12-31T11:12:47.591Z,18.87
2018-12-31T11:15:15.761Z,17.63
2018-12-31T11:17:48.562Z,17.37
2018-12-31T11:20:25.202Z,17.13
2018-12-31T11:22:52.924Z,16.27
2018-12-31T11:25:20.561Z,17.30
2018-12-31T11:27:48.178Z,15.60
2018-12-31T11:30:15.888Z,14.13
2018-12-31T11:32:43.588Z,15.30
2018-12-31T11:35:11.447Z,14.53
2018-12-31T11:37:39.717Z,15.47
2018-12-31T11:40:07.710Z,14.57
2018-12-31T11:42:35.337Z,15.60
2018-12-31T11:45:03.294Z,15.90
2018-12-31T11:47:30.806Z,14.97
2018-12-31T11:49:59.677Z,14.40
2018-12-31T11:52:27.423Z,15.50
2018-12-31T11:54:56.869Z,13.83
2018-12-31T11:57:24.642Z,14.00
2018-12-31T11:59:52.429Z,19.47
2018-12-31T12:02:23.699Z,15.97
2018-12-31T12:04:50.594Z,14.87
2018-12-31T12:07:18.513Z,14.60
2018-12-31T12:09:46.388Z,14.97
2018-12-31T12:12:14.014Z,14.23
2018-12-31T12:14:41.672Z,14.47
2018-12-31T12:17:26.705Z,14.20
2018-12-31T12:19:54.603Z,14.97
2018-12-31T12:25:07.786Z,13.83
2018-12-31T12:30:35.899Z,14.27
2018-12-31T12:33:03.921Z,14.20
2018-12-31T12:35:31.573Z,14.13
2018-12-31T12:37:59.309Z,15.03
2018-12-31T12:40:26.996Z,16.00
2018-12-31T12:42:54.622Z,13.80
2018-12-31T12:45:22.379Z,14.63
2018-12-31T12:47:50.028Z,14.27
2018-12-31T12:50:17.977Z,15.40
2018-12-31T12:52:47.290Z,14.07
2018-12-31T12:55:27.039Z,13.83
2018-12-31T13:20:51.744Z,10.43
2018-12-31T13:23:20.625Z,9.67
2018-12-31T13:25:48.226Z,11.13
2018-12-31T13:28:15.872Z,10.30
2018-12-31T13:30:43.587Z,9.97
2018-12-31T13:33:11.279Z,9.73
2018-12-31T13:35:38.897Z,9.80
2018-12-31T13:38:10.429Z,12.40
2018-12-31T13:40:38.064Z,11.40
2018-12-31T13:43:11.462Z,11.10
2018-12-31T13:45:39.201Z,11.23
2018-12-31T13:48:06.817Z,10.20
2018-12-31T13:50:58.080Z,9.60
2018-12-31T13:53:25.782Z,8.47
2018-12-31T13:55:54.002Z,10.00
2018-12-31T13:58:21.814Z,9.53
2018-12-31T14:00:51.509Z,9.27
2018-12-31T14:03:19.764Z,9.80
2018-12-31T14:05:47.950Z,10.40
2018-12-31T14:08:15.578Z,10.30
2018-12-31T14:10:43.452Z,10.93
2018-12-31T14:13:11.123Z,11.13
2018-12-31T14:15:39.746Z,11.47
2018-12-31T14:18:07.373Z,11.43
2018-12-31T14:20:34.996Z,10.80
2018-12-31T14:23:02.737Z,9.83
2018-12-31T14:25:31.612Z,11.00
2018-12-31T14:27:59.279Z,9.67
2018-12-31T14:30:28.562Z,10.27
2018-12-31T14:32:56.186Z,10.87
2018-12-31T14:35:24.777Z,10.57
2018-12-31T14:37:52.635Z,10.50
2018-12-31T14:40:20.543Z,12.77
2018-12-31T14:42:49.242Z,11.63
2018-12-31T14:45:16.892Z,10.13
2018-12-31T14:47:44.504Z,10.30
2018-12-31T14:50:12.133Z,10.83
2018-12-31T14:52:39.780Z,11.03
2018-12-31T14:55:07.513Z,10.90
2018-12-31T14:57:35.121Z,10.27
2018-12-31T15:00:02.777Z,11.07
2018-12-31T15:02:31.122Z,11.43
2018-12-31T15:04:59.021Z,11.07
2018-12-31T15:07:27.069Z,11.20
2018-12-31T15:10:04.197Z,10.40
2018-12-31T15:12:31.826Z,11.33
2018-12-31T15:14:59.801Z,11.50
2018-12-31T15:20:08.243Z,11.93
2018-12-31T15:22:35.899Z,25.43
2018-12-31T15:25:03.738Z,12.43
2018-12-31T15:27:32.292Z,12.77
2018-12-31T15:30:02.638Z,12.40
2018-12-31T15:32:30.314Z,12.50
2018-12-31T15:34:57.977Z,13.07
2018-12-31T15:37:26.952Z,12.37
2018-12-31T15:39:55.251Z,11.73
2018-12-31T15:42:22.874Z,12.90
2018-12-31T15:44:54.967Z,12.37
2018-12-31T15:47:22.954Z,12.70
2018-12-31T15:49:50.594Z,12.57
2018-12-31T15:52:18.215Z,13.17
2018-12-31T15:54:45.862Z,12.30
2018-12-31T15:57:13.437Z,13.53
2018-12-31T15:59:41.131Z,13.03
2018-12-31T16:02:08.778Z,12.33
2018-12-31T16:04:36.414Z,13.67
2018-12-31T16:07:04.583Z,14.43
2018-12-31T16:09:41.085Z,14.27
2018-12-31T16:12:09.051Z,13.77
2018-12-31T16:17:36.229Z,12.47
2018-12-31T16:38:15.884Z,14.63
2018-12-31T16:46:35.375Z,18.67
2018-12-31T16:49:03.135Z,15.10
2018-12-31T16:51:30.772Z,17.80
2018-12-31T16:53:58.850Z,17.13
2018-12-31T16:56:26.505Z,17.77
2018-12-31T16:58:54.173Z,18.47
2018-12-31T17:01:22.219Z,15.90
2018-12-31T17:03:49.912Z,17.03
2018-12-31T17:06:17.870Z,16.00
2018-12-31T17:08:49.317Z,16.00
2018-12-31T17:11:17.299Z,15.20
2018-12-31T17:13:45.261Z,19.67
2018-12-31T17:16:13.150Z,27.53
2018-12-31T17:18:42.181Z,19.37
2018-12-31T17:21:09.821Z,17.70
2018-12-31T17:23:37.922Z,18.50
2018-12-31T17:26:05.941Z,22.85
2018-12-31T17:28:33.625Z,19.63
2018-12-31T17:31:01.337Z,19.83
2018-12-31T17:33:29.310Z,18.83
2018-12-31T17:35:57.465Z,18.83
2018-12-31T17:38:25.124Z,21.60
2018-12-31T17:40:53.220Z,21.23
2018-12-31T17:43:20.895Z,21.10
2018-12-31T17:45:48.746Z,19.67
2018-12-31T17:48:16.417Z,22.07
2018-12-31T17:50:44.378Z,21.27
2018-12-31T17:53:12.160Z,22.10
2018-12-31T17:55:40.161Z,21.63
2018-12-31T17:58:08.299Z,20.47
2018-12-31T18:00:36.445Z,23.40
2018-12-31T18:03:04.310Z,22.80
2018-12-31T18:05:32.389Z,24.80
2018-12-31T18:08:00.059Z,24.03
2018-12-31T18:10:27.942Z,38.40
2018-12-31T18:12:57.874Z,25.07
2018-12-31T18:15:25.786Z,25.60
2018-12-31T18:17:53.561Z,24.87
2018-12-31T18:20:21.327Z,25.23
2018-12-31T18:22:49.002Z,27.80
2018-12-31T18:25:16.705Z,29.30
2018-12-31T18:27:44.446Z,30.47
2018-12-31T18:30:13.803Z,32.17
2018-12-31T18:32:42.112Z,34.00
2018-12-31T18:35:10.769Z,31.90
2018-12-31T18:37:41.970Z,32.73
2018-12-31T18:40:08.265Z,33.57
2018-12-31T18:42:36.207Z,34.50
2018-12-31T18:45:04.490Z,34.57
2018-12-31T18:47:32.550Z,37.43
2018-12-31T18:50:00.346Z,36.03
2018-12-31T18:52:28.278Z,43.53
2018-12-31T18:54:56.149Z,43.30
2018-12-31T18:57:24.265Z,46.77
2018-12-31T18:59:51.948Z,38.00
2018-12-31T19:02:20.588Z,42.07
2018-12-31T19:04:48.548Z,43.67
2018-12-31T19:07:17.883Z,45.57
2018-12-31T19:09:45.576Z,53.13
2018-12-31T19:12:13.114Z,54.13
2018-12-31T19:14:40.742Z,52.83
2018-12-31T19:17:09.014Z,53.23
2018-12-31T19:19:36.769Z,49.07
2018-12-31T19:22:04.637Z,51.93
2018-12-31T19:24:32.314Z,51.87
2018-12-31T19:27:00.184Z,51.83
2018-12-31T19:29:28.208Z,51.63
2018-12-31T19:31:57.249Z,52.03
2018-12-31T19:34:24.939Z,51.30
2018-12-31T19:36:52.648Z,49.83
2018-12-31T19:39:20.262Z,47.67
2018-12-31T19:41:48.086Z,51.83
2018-12-31T19:44:16.563Z,51.50
2018-12-31T19:46:46.331Z,50.03
2018-12-31T19:49:14.364Z,47.97
2018-12-31T19:51:42.153Z,50.73
2018-12-31T19:54:09.866Z,49.13
2018-12-31T19:56:37.970Z,61.50
2018-12-31T19:59:05.724Z,61.50
2018-12-31T20:01:33.737Z,50.40
2018-12-31T20:04:01.344Z,47.77
2018-12-31T20:06:29.282Z,46.77
2018-12-31T20:08:57.001Z,45.83
2018-12-31T20:11:24.955Z,45.07
2018-12-31T20:13:52.832Z,60.60
2018-12-31T20:16:20.602Z,47.37
2018-12-31T20:18:49.288Z,46.93
2018-12-31T20:21:16.946Z,43.30
2018-12-31T20:23:44.540Z,43.57
2018-12-31T20:26:12.197Z,41.67
2018-12-31T20:28:39.805Z,45.53
2018-12-31T20:31:07.455Z,47.07
2018-12-31T20:33:37.030Z,46.60
2018-12-31T20:36:04.749Z,46.13
2018-12-31T20:38:32.359Z,43.63
2018-12-31T20:40:59.983Z,45.97
2018-12-31T20:43:28.029Z,46.53
2018-12-31T20:45:55.604Z,46.17
2018-12-31T20:48:23.274Z,45.57
2018-12-31T20:51:09.062Z,44.57
2018-12-31T20:53:36.910Z,47.20
2018-12-31T20:56:06.025Z,47.43
2018-12-31T20:58:34.195Z,45.77
2018-12-31T21:01:02.449Z,45.77
2018-12-31T21:03:30.217Z,47.00
2018-12-31T21:05:58.226Z,49.60
2018-12-31T21:08:26.552Z,45.20
2018-12-31T21:10:54.244Z,42.13
2018-12-31T21:13:23.606Z,41.73
2018-12-31T21:15:51.585Z,39.90
2018-12-31T21:18:19.263Z,38.87
2018-12-31T21:20:47.209Z,39.73
2018-12-31T21:23:15.687Z,39.03
2018-12-31T21:25:43.499Z,39.47
2018-12-31T21:28:11.788Z,40.03
2018-12-31T21:30:39.595Z,39.80
2018-12-31T21:33:08.306Z,42.77
2018-12-31T21:35:36.301Z,39.37
2018-12-31T21:38:03.939Z,39.87
2018-12-31T21:40:32.334Z,37.97
2018-12-31T21:43:00.182Z,42.93
2018-12-31T21:45:28.228Z,38.83
2018-12-31T21:47:56.260Z,38.40
2018-12-31T21:50:24.615Z,37.40
2018-12-31T21:52:52.424Z,38.20
2018-12-31T21:55:20.108Z,39.37
2018-12-31T21:57:48.083Z,32.00
2018-12-31T22:00:15.745Z,28.77
2018-12-31T22:02:43.481Z,27.93
2018-12-31T22:05:11.416Z,30.43
2018-12-31T22:07:39.270Z,27.30
2018-12-31T22:10:07.419Z,23.63
2018-12-31T22:12:35.311Z,23.37
2018-12-31T22:15:03.586Z,22.60
2018-12-31T22:17:31.367Z,23.77
2018-12-31T22:19:59.388Z,24.17
2018-12-31T22:22:27.071Z,23.70
2018-12-31T22:24:55.100Z,24.17
2018-12-31T22:27:23.090Z,26.10
2018-12-31T22:29:51.119Z,25.47
2018-12-31T22:32:18.868Z,25.00
2018-12-31T22:34:46.952Z,29.87
2018-12-31T22:37:14.667Z,27.60
2018-12-31T22:39:42.528Z,25.13
2018-12-31T22:42:10.201Z,24.50
2018-12-31T22:44:38.024Z,22.67
2018-12-31T22:47:05.981Z,28.52
2018-12-31T22:49:33.764Z,25.93
2018-12-31T22:52:01.900Z,32.80
2018-12-31T22:54:29.899Z,25.80
2018-12-31T22:56:58.645Z,26.13
2018-12-31T23:02:08.568Z,38.07
2018-12-31T23:04:36.223Z,24.90
2018-12-31T23:07:05.517Z,27.17
2018-12-31T23:09:40.945Z,25.90
2018-12-31T23:12:03.048Z,25.23
2018-12-31T23:14:30.985Z,34.83
2018-12-31T23:17:00.209Z,31.77
2018-12-31T23:19:27.912Z,24.80
2018-12-31T23:21:55.623Z,26.70
2018-12-31T23:24:23.710Z,25.40
2018-12-31T23:26:51.371Z,26.87
2018-12-31T23:29:19.271Z,26.30
2018-12-31T23:31:47.441Z,26.03
2018-12-31T23:34:15.078Z,27.27
2018-12-31T23:36:44.538Z,26.17
2018-12-31T23:39:12.572Z,25.80
2018-12-31T23:41:40.488Z,26.47
2018-12-31T23:44:08.191Z,25.50
2018-12-31T23:46:36.447Z,25.93
2018-12-31T23:49:04.736Z,27.53
2018-12-31T23:51:33.114Z,29.40
2018-12-31T23:54:01.361Z,30.60
2018-12-31T23:56:29.078Z,28.53
2018-12-31T23:58:58.689Z,30.07
